createdAt,value
2022-11-16T00:00:10.632Z,100318.19
2022-11-16T00:03:14.310Z,100316.25
2022-11-16T00:06:18.534Z,100305.75
2022-11-16T00:09:27.086Z,100306.50
2022-11-16T00:12:30.817Z,100305.38
2022-11-16T00:15:35.772Z,100305.22
2022-11-16T00:18:39.234Z,100303.50
2022-11-16T00:21:42.891Z,100299.16
2022-11-16T00:24:46.454Z,100301.09
2022-11-16T00:27:49.974Z,100295.91
2022-11-16T00:31:01.582Z,100306.59
2022-11-16T00:34:05.245Z,100296.97
2022-11-16T00:37:08.770Z,100291.06
2022-11-16T00:40:14.129Z,100286.66
2022-11-16T00:43:17.883Z,100287.53
2022-11-16T00:46:23.164Z,100285.16
2022-11-16T00:49:26.748Z,100279.34
2022-11-16T00:52:30.346Z,100280.03
2022-11-16T00:55:35.099Z,100283.47
2022-11-16T00:58:38.702Z,100273.09
2022-11-16T01:01:43.912Z,100282.28
2022-11-16T01:04:48.108Z,100277.03
2022-11-16T01:07:52.849Z,100267.53
2022-11-16T01:11:16.465Z,100268.41
2022-11-16T01:14:20.027Z,100263.25
2022-11-16T01:17:25.027Z,100260.09
2022-11-16T01:20:30.770Z,100259.28
2022-11-16T01:23:34.403Z,100260.25
2022-11-16T01:26:37.952Z,100259.47
2022-11-16T01:29:41.673Z,100259.63
2022-11-16T01:32:46.738Z,100248.25
2022-11-16T01:35:50.569Z,100249.97
2022-11-16T01:38:54.212Z,100248.19
2022-11-16T01:41:57.897Z,100244.78
2022-11-16T01:45:07.494Z,100238.75
2022-11-16T01:48:17.366Z,100225.63
2022-11-16T01:51:22.209Z,100228.47
2022-11-16T01:54:26.068Z,100224.34
2022-11-16T01:57:35.418Z,100225.91
2022-11-16T02:00:39.162Z,100221.50
2022-11-16T02:03:44.138Z,100224.34
2022-11-16T02:07:03.988Z,100222.53
2022-11-16T02:10:25.403Z,100226.13
2022-11-16T02:13:43.543Z,100215.81
2022-11-16T02:16:59.204Z,100207.31
2022-11-16T02:20:48.888Z,100207.03
2022-11-16T02:24:36.361Z,100211.75
2022-11-16T02:28:21.982Z,100204.75
2022-11-16T02:31:35.108Z,100198.72
2022-11-16T02:34:45.640Z,100198.53
2022-11-16T02:38:01.120Z,100202.97
2022-11-16T02:41:11.300Z,100208.28
2022-11-16T02:44:21.150Z,100209.19
2022-11-16T02:47:31.716Z,100201.28
2022-11-16T02:50:38.087Z,100202.31
2022-11-16T02:54:03.257Z,100205.75
2022-11-16T02:57:45.281Z,100207.81
2022-11-16T03:00:59.265Z,100198.72
2022-11-16T03:04:14.186Z,100202.56
2022-11-16T03:07:24.883Z,100202.94
2022-11-16T03:10:46.226Z,100216.59
2022-11-16T03:13:52.002Z,100210.06
2022-11-16T03:16:59.415Z,100212.19
2022-11-16T03:20:10.941Z,100206.38
2022-11-16T03:23:15.609Z,100211.81
2022-11-16T03:26:27.514Z,100224.19
2022-11-16T03:29:36.585Z,100214.69
2022-11-16T03:32:49.560Z,100212.06
2022-11-16T03:36:04.778Z,100221.06
2022-11-16T03:39:17.155Z,100229.91
2022-11-16T03:42:24.490Z,100226.53
2022-11-16T03:45:29.422Z,100224.94
2022-11-16T03:48:37.126Z,100228.56
2022-11-16T03:51:42.898Z,100225.31
2022-11-16T03:54:46.481Z,100214.97
2022-11-16T03:57:50.015Z,100210.69
2022-11-16T04:00:54.314Z,100208.19
2022-11-16T04:03:58.043Z,100220.63
2022-11-16T04:07:20.587Z,100205.91
2022-11-16T04:10:41.770Z,100205.16
2022-11-16T04:14:08.015Z,100204.38
2022-11-16T04:17:31.753Z,100206.22
2022-11-16T04:20:52.762Z,100208.19
2022-11-16T04:24:16.007Z,100199.53
2022-11-16T04:27:43.978Z,100198.75
2022-11-16T04:31:09.271Z,100204.22
2022-11-16T04:34:41.691Z,100203.50
2022-11-16T04:37:52.685Z,100207.97
2022-11-16T04:40:57.715Z,100204.56
2022-11-16T04:44:01.302Z,100198.59
2022-11-16T04:47:06.766Z,100190.81
2022-11-16T04:50:11.452Z,100201.31
2022-11-16T04:53:15.898Z,100198.81
2022-11-16T04:56:20.847Z,100201.47
2022-11-16T04:59:24.428Z,100197.25
2022-11-16T05:02:28.062Z,100189.63
2022-11-16T05:05:31.579Z,100189.69
2022-11-16T05:08:35.380Z,100189.00
2022-11-16T05:11:40.619Z,100178.63
2022-11-16T05:14:44.699Z,100171.72
2022-11-16T05:17:48.400Z,100185.78
2022-11-16T05:21:02.850Z,100179.03
2022-11-16T05:24:24.800Z,100184.31
2022-11-16T05:27:41.544Z,100187.81
2022-11-16T05:30:47.144Z,100188.00
2022-11-16T05:33:50.831Z,100187.22
2022-11-16T05:36:55.096Z,100185.50
2022-11-16T05:39:58.818Z,100178.47
2022-11-16T05:43:03.742Z,100192.53
2022-11-16T05:46:07.723Z,100181.19
2022-11-16T05:49:12.129Z,100176.72
2022-11-16T05:52:15.782Z,100186.41
2022-11-16T05:55:19.376Z,100185.50
2022-11-16T05:58:24.460Z,100176.75
2022-11-16T06:01:28.469Z,100192.44
2022-11-16T06:04:32.107Z,100189.03
2022-11-16T06:07:35.683Z,100187.22
2022-11-16T06:10:39.448Z,100185.38
2022-11-16T06:13:44.497Z,100194.09
2022-11-16T06:16:48.129Z,100193.22
2022-11-16T06:19:51.646Z,100193.22
2022-11-16T06:22:55.266Z,100191.44
2022-11-16T06:25:59.015Z,100193.22
2022-11-16T06:29:04.714Z,100200.38
2022-11-16T06:32:08.258Z,100193.38
2022-11-16T06:35:12.119Z,100193.44
2022-11-16T06:38:18.718Z,100190.94
2022-11-16T06:41:22.967Z,100191.81
2022-11-16T06:44:27.910Z,100195.34
2022-11-16T06:47:31.594Z,100197.09
2022-11-16T06:50:35.227Z,100202.44
2022-11-16T06:53:38.776Z,100199.00
2022-11-16T06:56:42.310Z,100205.97
2022-11-16T06:59:47.313Z,100209.50
2022-11-16T07:02:50.946Z,100201.72
2022-11-16T07:05:55.339Z,100215.81
2022-11-16T07:08:58.992Z,100200.97
2022-11-16T07:12:02.621Z,100209.09
2022-11-16T07:15:09.217Z,100220.47
2022-11-16T07:18:13.255Z,100219.56
2022-11-16T07:21:18.628Z,100226.50
2022-11-16T07:24:22.213Z,100238.72
2022-11-16T07:27:25.874Z,100237.06
2022-11-16T07:30:30.927Z,100236.38
2022-11-16T07:33:34.916Z,100240.06
2022-11-16T07:36:38.469Z,100230.63
2022-11-16T07:39:42.963Z,100242.81
2022-11-16T07:42:46.626Z,100242.94
2022-11-16T07:45:53.154Z,100247.28
2022-11-16T07:48:57.961Z,100250.78
2022-11-16T07:52:03.028Z,100258.59
2022-11-16T07:55:07.393Z,100265.78
2022-11-16T07:58:10.983Z,100259.63
2022-11-16T08:01:18.693Z,100268.31
2022-11-16T08:04:22.538Z,100274.25
2022-11-16T08:07:26.379Z,100274.41
2022-11-16T08:10:31.497Z,100279.66
2022-11-16T08:13:38.053Z,100276.13
2022-11-16T08:16:43.438Z,100290.16
2022-11-16T08:19:47.078Z,100294.38
2022-11-16T08:22:50.864Z,100302.31
2022-11-16T08:25:58.748Z,100301.50
2022-11-16T08:29:02.343Z,100303.28
2022-11-16T08:32:07.706Z,100306.69
2022-11-16T08:35:11.664Z,100304.78
2022-11-16T08:38:15.239Z,100306.72
2022-11-16T08:41:20.483Z,100307.47
2022-11-16T08:44:24.555Z,100307.38
2022-11-16T08:47:29.486Z,100309.25
2022-11-16T08:50:44.128Z,100305.75
2022-11-16T08:53:58.129Z,100302.31
2022-11-16T08:57:01.899Z,100310.31
2022-11-16T09:00:06.730Z,100312.69
2022-11-16T09:03:11.690Z,100312.00
2022-11-16T09:06:16.546Z,100309.44
2022-11-16T09:09:20.530Z,100311.34
2022-11-16T09:12:24.452Z,100313.81
2022-11-16T09:15:41.006Z,100322.44
2022-11-16T09:18:47.246Z,100326.84
2022-11-16T09:21:50.937Z,100321.72
2022-11-16T09:24:54.505Z,100329.47
2022-11-16T09:27:58.033Z,100333.97
2022-11-16T09:31:04.109Z,100326.16
2022-11-16T09:34:10.653Z,100332.34
2022-11-16T09:37:15.682Z,100327.22
2022-11-16T09:40:19.760Z,100326.22
2022-11-16T09:43:45.373Z,100346.22
2022-11-16T09:46:56.226Z,100336.72
2022-11-16T09:50:05.405Z,100336.53
2022-11-16T09:53:33.583Z,100336.53
2022-11-16T09:56:44.063Z,100340.13
2022-11-16T09:59:53.055Z,100332.41
2022-11-16T10:03:06.732Z,100344.50
2022-11-16T10:06:23.335Z,100338.44
2022-11-16T10:09:27.858Z,100343.81
2022-11-16T10:12:43.947Z,100351.66
2022-11-16T10:16:03.181Z,100351.63
2022-11-16T10:19:23.474Z,100348.34
2022-11-16T10:22:46.950Z,100344.78
2022-11-16T10:25:59.281Z,100354.41
2022-11-16T10:29:33.747Z,100350.19
2022-11-16T10:32:46.684Z,100351.94
2022-11-16T10:35:54.186Z,100347.56
2022-11-16T10:39:02.630Z,100342.34
2022-11-16T10:42:13.027Z,100340.53
2022-11-16T10:45:23.366Z,100343.97
2022-11-16T10:48:39.635Z,100340.53
2022-11-16T10:51:43.921Z,100337.94
2022-11-16T10:54:48.831Z,100340.53
2022-11-16T10:57:57.858Z,100340.53
2022-11-16T11:01:01.516Z,100328.16
2022-11-16T11:04:20.885Z,100339.66
2022-11-16T11:07:31.839Z,100330.94
2022-11-16T11:10:39.699Z,100326.88
2022-11-16T11:13:43.359Z,100327.50
2022-11-16T11:16:46.874Z,100331.69
2022-11-16T11:20:00.650Z,100329.09
2022-11-16T11:23:14.933Z,100322.19
2022-11-16T11:26:36.977Z,100330.84
2022-11-16T11:29:44.321Z,100335.41
2022-11-16T11:32:49.753Z,100333.66
2022-11-16T11:36:06.721Z,100334.56
2022-11-16T11:39:30.861Z,100335.34
2022-11-16T11:42:36.059Z,100330.06
2022-11-16T11:45:52.892Z,100334.31
2022-11-16T11:49:04.687Z,100330.56
2022-11-16T11:52:19.457Z,100326.47
2022-11-16T11:55:23.268Z,100333.56
2022-11-16T11:58:34.290Z,100320.47
2022-11-16T12:02:03.538Z,100330.22
2022-11-16T12:05:43.988Z,100320.75
2022-11-16T12:09:20.414Z,100318.19
2022-11-16T12:12:41.073Z,100320.94
2022-11-16T12:16:04.970Z,100314.69
2022-11-16T12:20:09.174Z,100313.84
2022-11-16T12:24:01.188Z,100319.09
2022-11-16T12:27:26.990Z,100312.97
2022-11-16T12:30:39.485Z,100314.03
2022-11-16T12:33:58.586Z,100311.56
2022-11-16T12:37:14.828Z,100306.41
2022-11-16T12:40:36.911Z,100314.97
2022-11-16T12:43:50.867Z,100314.22
2022-11-16T12:47:07.376Z,100318.47
2022-11-16T12:50:39.111Z,100321.91
2022-11-16T12:54:16.203Z,100324.59
2022-11-16T12:57:30.329Z,100329.03
2022-11-16T13:00:51.331Z,100332.47
2022-11-16T13:04:01.823Z,100336.09
2022-11-16T13:07:18.273Z,100336.97
2022-11-16T13:10:28.023Z,100335.25
2022-11-16T13:13:38.609Z,100332.69
2022-11-16T13:16:43.236Z,100323.13
2022-11-16T13:20:02.019Z,100332.78
2022-11-16T13:23:15.508Z,100326.72
2022-11-16T13:26:36.478Z,100326.81
2022-11-16T13:29:51.302Z,100327.75
2022-11-16T13:33:20.176Z,100326.91
2022-11-16T13:36:47.871Z,100326.94
2022-11-16T13:40:24.727Z,100327.03
2022-11-16T13:43:28.306Z,100324.34
2022-11-16T13:46:55.890Z,100320.84
2022-11-16T13:50:03.621Z,100314.75
2022-11-16T13:56:52.621Z,100314.69
2022-11-16T14:00:12.590Z,100315.66
2022-11-16T14:03:38.275Z,100321.03
2022-11-16T14:06:59.737Z,100308.75
2022-11-16T14:10:08.136Z,100316.56
2022-11-16T14:13:40.079Z,100317.44
2022-11-16T14:16:50.068Z,100314.09
2022-11-16T14:19:57.138Z,100310.56
2022-11-16T14:23:22.837Z,100324.50
2022-11-16T14:26:49.652Z,100318.69
2022-11-16T14:30:04.758Z,100322.97
2022-11-16T14:33:25.063Z,100334.34
2022-11-16T14:36:40.929Z,100327.31
2022-11-16T14:39:45.722Z,100330.00
2022-11-16T14:43:15.377Z,100329.16
2022-11-16T14:46:24.234Z,100338.75
2022-11-16T14:49:30.346Z,100339.66
2022-11-16T14:52:41.258Z,100333.63
2022-11-16T14:55:46.684Z,100324.84
2022-11-16T14:58:56.599Z,100321.47
2022-11-16T15:02:11.878Z,100323.19
2022-11-16T15:05:18.948Z,100320.69
2022-11-16T15:08:29.645Z,100322.50
2022-11-16T15:11:56.268Z,100324.09
2022-11-16T15:15:07.333Z,100324.88
2022-11-16T15:18:19.436Z,100319.75
2022-11-16T15:21:24.763Z,100312.91
2022-11-16T15:24:32.031Z,100320.69
2022-11-16T15:27:39.840Z,100321.59
2022-11-16T15:30:47.392Z,100321.66
2022-11-16T15:33:53.477Z,100318.31
2022-11-16T15:36:57.129Z,100321.69
2022-11-16T15:40:03.782Z,100327.66
2022-11-16T15:43:08.941Z,100331.19
2022-11-16T15:46:16.263Z,100329.38
2022-11-16T15:49:30.770Z,100332.03
2022-11-16T15:52:54.723Z,100326.78
2022-11-16T15:55:59.796Z,100332.91
2022-11-16T15:59:14.694Z,100327.66
2022-11-16T16:02:23.297Z,100331.97
2022-11-16T16:05:38.160Z,100332.03
2022-11-16T16:08:42.075Z,100338.94
2022-11-16T16:11:45.993Z,100336.28
2022-11-16T16:14:52.307Z,100329.38
2022-11-16T16:17:56.664Z,100326.78
2022-11-16T16:21:04.570Z,100324.13
2022-11-16T16:24:32.452Z,100316.41
2022-11-16T16:27:41.331Z,100312.97
2022-11-16T16:30:45.053Z,100321.47
2022-11-16T16:33:48.792Z,100318.88
2022-11-16T16:36:53.906Z,100324.03
2022-11-16T16:39:58.664Z,100324.88
2022-11-16T16:43:02.502Z,100325.06
2022-11-16T16:46:07.237Z,100324.97
2022-11-16T16:49:10.877Z,100321.56
2022-11-16T16:52:16.664Z,100319.69
2022-11-16T16:55:20.832Z,100312.78
2022-11-16T16:58:24.643Z,100315.47
2022-11-16T17:01:29.232Z,100318.91
2022-11-16T17:04:34.402Z,100331.97
2022-11-16T17:07:40.762Z,100325.00
2022-11-16T17:10:44.394Z,100325.84
2022-11-16T17:13:48.318Z,100320.66
2022-11-16T17:16:52.568Z,100327.66
2022-11-16T17:19:56.990Z,100329.25
2022-11-16T17:23:03.210Z,100326.78
2022-11-16T17:26:10.157Z,100329.34
2022-11-16T17:29:14.187Z,100323.25
2022-11-16T17:32:18.904Z,100318.97
2022-11-16T17:35:23.665Z,100318.03
2022-11-16T17:38:29.012Z,100311.16
2022-11-16T17:41:32.646Z,100307.47
2022-11-16T17:44:36.314Z,100316.19
2022-11-16T17:47:40.944Z,100317.16
2022-11-16T17:50:49.066Z,100314.47
2022-11-16T17:53:54.717Z,100311.16
2022-11-16T17:56:58.440Z,100310.97
2022-11-16T18:00:02.172Z,100311.88
2022-11-16T18:03:05.927Z,100317.03
2022-11-16T18:06:13.487Z,100309.13
2022-11-16T18:09:18.875Z,100321.25
2022-11-16T18:12:22.765Z,100322.25
2022-11-16T18:15:29.934Z,100331.66
2022-11-16T18:18:34.007Z,100318.69
2022-11-16T18:21:41.971Z,100317.03
2022-11-16T18:24:47.615Z,100315.09
2022-11-16T18:27:54.074Z,100310.81
2022-11-16T18:31:05.219Z,100311.75
2022-11-16T18:34:09.244Z,100323.84
2022-11-16T18:37:12.846Z,100321.31
2022-11-16T18:40:18.189Z,100316.47
2022-11-16T18:43:21.785Z,100320.88
2022-11-16T18:46:27.679Z,100312.25
2022-11-16T18:49:31.282Z,100303.66
2022-11-16T18:52:34.888Z,100304.44
2022-11-16T18:55:39.794Z,100305.44
2022-11-16T18:58:50.207Z,100308.91
2022-11-16T19:01:55.347Z,100303.66
2022-11-16T19:04:58.955Z,100300.38
2022-11-16T19:08:02.516Z,100293.56
2022-11-16T19:11:09.394Z,100304.03
2022-11-16T19:14:13.499Z,100291.84
2022-11-16T19:17:18.728Z,100290.97
2022-11-16T19:20:22.379Z,100299.59
2022-11-16T19:23:25.941Z,100290.22
2022-11-16T19:26:31.113Z,100279.72
2022-11-16T19:29:34.687Z,100280.56
2022-11-16T19:32:39.707Z,100272.69
2022-11-16T19:35:43.213Z,100263.31
2022-11-16T19:38:49.637Z,100269.31
2022-11-16T19:41:54.789Z,100273.56
2022-11-16T19:44:58.488Z,100271.91
2022-11-16T19:48:02.376Z,100265.94
2022-11-16T19:51:08.246Z,100259.66
2022-11-16T19:54:14.061Z,100272.75
2022-11-16T19:57:20.840Z,100276.28
2022-11-16T20:00:24.895Z,100273.50
2022-11-16T20:03:28.817Z,100273.75
2022-11-16T20:06:35.166Z,100264.31
2022-11-16T20:09:38.965Z,100255.53
2022-11-16T20:12:44.226Z,100259.84
2022-11-16T20:15:47.757Z,100246.91
2022-11-16T20:18:53.591Z,100255.56
2022-11-16T20:21:59.532Z,100253.78
2022-11-16T20:25:03.129Z,100253.78
2022-11-16T20:28:08.569Z,100259.81
2022-11-16T20:31:15.778Z,100257.22
2022-11-16T20:34:20.815Z,100262.47
2022-11-16T20:37:24.622Z,100254.56
2022-11-16T20:40:28.270Z,100252.06
2022-11-16T20:43:33.822Z,100256.31
2022-11-16T20:46:38.558Z,100262.50
2022-11-16T20:49:42.065Z,100257.28
2022-11-16T20:52:49.972Z,100262.38
2022-11-16T20:55:57.469Z,100262.47
2022-11-16T20:59:02.722Z,100241.59
2022-11-16T21:02:06.334Z,100243.28
2022-11-16T21:05:10.881Z,100244.34
2022-11-16T21:08:14.946Z,100248.69
2022-11-16T21:11:21.377Z,100240.69
2022-11-16T21:14:25.915Z,100240.69
2022-11-16T21:17:29.499Z,100233.72
2022-11-16T21:20:33.028Z,100230.16
2022-11-16T21:23:39.085Z,100238.84
2022-11-16T21:26:42.708Z,100250.09
2022-11-16T21:29:47.812Z,100240.47
2022-11-16T21:32:51.471Z,100256.09
2022-11-16T21:35:56.075Z,100248.28
2022-11-16T21:39:00.282Z,100235.97
2022-11-16T21:42:04.205Z,100234.25
2022-11-16T21:45:11.295Z,100228.97
2022-11-16T21:48:15.842Z,100236.81
2022-11-16T21:51:22.305Z,100236.91
2022-11-16T21:54:45.985Z,100231.50
2022-11-16T21:57:49.932Z,100219.50
2022-11-16T22:00:57.870Z,100210.88
2022-11-16T22:04:18.708Z,100206.44
2022-11-16T22:07:36.696Z,100205.50
2022-11-16T22:10:40.739Z,100206.44
2022-11-16T22:13:44.992Z,100209.06
2022-11-16T22:16:49.916Z,100201.22
2022-11-16T22:19:53.526Z,100203.00
2022-11-16T22:22:57.085Z,100196.97
2022-11-16T22:26:04.039Z,100196.06
2022-11-16T22:29:07.930Z,100195.25
2022-11-16T22:32:12.890Z,100177.94
2022-11-16T22:35:16.589Z,100170.88
2022-11-16T22:38:20.206Z,100180.53
2022-11-16T22:41:23.810Z,100168.31
2022-11-16T22:44:27.486Z,100185.66
2022-11-16T22:47:33.429Z,100176.13
2022-11-16T22:50:37.039Z,100172.72
2022-11-16T22:53:40.553Z,100169.31
2022-11-16T22:56:45.035Z,100169.31
2022-11-16T22:59:48.595Z,100162.31
2022-11-16T23:02:53.747Z,100165.84
2022-11-16T23:05:57.456Z,100166.72
2022-11-16T23:09:01.363Z,100158.91
2022-11-16T23:12:23.086Z,100141.63
2022-11-16T23:15:44.308Z,100144.09
2022-11-16T23:18:49.229Z,100131.25
2022-11-16T23:22:10.430Z,100126.03
2022-11-16T23:25:31.875Z,100110.44
2022-11-16T23:28:35.844Z,100107.03
2022-11-16T23:31:39.736Z,100106.91
2022-11-16T23:34:44.764Z,100095.75
2022-11-16T23:37:53.578Z,100100.09
2022-11-16T23:40:57.136Z,100096.59
2022-11-16T23:43:59.737Z,100094.06
2022-11-16T23:47:03.347Z,100082.00
2022-11-16T23:50:09.419Z,100089.84
2022-11-16T23:53:13.898Z,100090.84
2022-11-16T23:56:17.719Z,100082.09
2022-11-16T23:59:21.309Z,100087.31
